Time;durP1;ratioP1;P1;durP2;ratioP2;P2;SDS_P1;SDS_P2;PMS_P1;PMS_P2;Temp;Humidity;BMP_temperature;BMP_pressure;BME280_temperature;BME280_humidity;BME280_pressure;Samples;Min_cycle;Max_cycle;Signal;HPM_P1;HPM_P2
2022/07/14 00:02:24;;;;;;;9.00;7.28;;;26.30;44.80;;;;;;4615408;60;21033;-27
2022/07/14 00:07:24;;;;;;;9.43;6.95;;;26.20;44.90;;;;;;4615282;60;21068;-26
2022/07/14 00:12:25;;;;;;;8.10;7.30;;;26.20;44.80;;;;;;4650325;56;21020;-29
2022/07/14 00:17:26;;;;;;;7.95;7.15;;;26.20;45.20;;;;;;4688973;56;21005;-29
2022/07/14 00:22:27;;;;;;;8.20;7.12;;;26.30;45.00;;;;;;4615397;60;21024;-28
2022/07/14 00:27:28;;;;;;;8.95;7.43;;;26.20;44.90;;;;;;4662966;56;21076;-29
2022/07/14 00:32:29;;;;;;;7.78;7.00;;;26.20;44.90;;;;;;4615383;60;21028;-28
2022/07/14 00:37:29;;;;;;;7.95;6.68;;;26.20;45.10;;;;;;5043878;56;21550;-33
2022/07/14 00:42:43;;;;;;;8.65;7.32;;;26.20;45.10;;;;;;4672463;56;21036;-35
2022/07/14 00:47:46;;;;;;;7.37;6.53;;;26.20;45.00;;;;;;4840720;56;21522;-28
2022/07/14 00:52:48;;;;;;;7.47;6.70;;;26.20;44.90;;;;;;4636973;56;21502;-30
2022/07/14 00:57:50;;;;;;;8.13;6.55;;;26.20;45.00;;;;;;4876587;56;21063;-28
2022/07/14 01:02:51;;;;;;;7.95;6.15;;;26.20;45.00;;;;;;4886506;56;21554;-29
2022/07/14 01:07:51;;;;;;;7.93;6.55;;;26.20;45.20;;;;;;4614873;60;21032;-31
2022/07/14 01:12:52;;;;;;;7.12;6.43;;;26.20;45.10;;;;;;4658956;56;21044;-29
2022/07/14 01:17:54;;;;;;;7.57;6.40;;;26.20;45.00;;;;;;4705603;56;21016;-27
2022/07/14 01:22:56;;;;;;;7.12;6.43;;;26.20;45.10;;;;;;4615336;60;21090;-26
2022/07/14 01:27:57;;;;;;;7.03;6.32;;;26.20;45.20;;;;;;4805499;56;21567;-33
2022/07/14 01:32:57;;;;;;;6.62;5.93;;;26.20;45.10;;;;;;4697151;56;21083;-30
2022/07/14 01:37:58;;;;;;;6.82;6.12;;;26.20;45.00;;;;;;4739219;56;21012;-29
2022/07/14 01:42:59;;;;;;;7.72;5.62;;;26.20;45.00;;;;;;4653331;56;21498;-28
2022/07/14 01:48:00;;;;;;;7.37;5.80;;;26.20;45.20;;;;;;4614699;60;21567;-31
2022/07/14 01:53:01;;;;;;;7.28;6.25;;;26.20;45.10;;;;;;4829522;56;21024;-29
2022/07/14 01:58:02;;;;;;;6.60;5.90;;;26.20;45.00;;;;;;4675753;56;21024;-29
2022/07/14 02:03:02;;;;;;;6.85;5.93;;;26.20;45.20;;;;;;4849606;56;21016;-32
2022/07/14 02:08:03;;;;;;;6.57;5.62;;;26.20;45.10;;;;;;4638583;56;21020;-31
2022/07/14 02:13:04;;;;;;;6.20;5.60;;;26.20;45.10;;;;;;4884771;56;21088;-32
2022/07/14 02:18:05;;;;;;;6.87;5.50;;;26.20;45.70;;;;;;4731402;56;21116;-26
2022/07/14 02:23:06;;;;;;;6.20;5.60;;;26.10;45.10;;;;;;4913567;56;21117;-28
2022/07/14 02:28:06;;;;;;;6.07;5.45;;;26.10;45.10;;;;;;4683225;56;21452;-28
2022/07/14 02:33:08;;;;;;;6.50;5.60;;;26.10;45.00;;;;;;4652551;56;21514;-29
2022/07/14 02:38:08;;;;;;;6.35;5.28;;;26.20;45.10;;;;;;4661379;56;21060;-29
2022/07/14 02:43:09;;;;;;;5.75;5.20;;;26.10;45.60;;;;;;4775397;56;21024;-28
2022/07/14 02:48:11;;;;;;;5.75;5.25;;;26.10;45.00;;;;;;4627039;56;21542;-24
2022/07/14 02:53:11;;;;;;;5.78;5.18;;;26.10;45.00;;;;;;4721865;56;21550;-27
2022/07/14 02:58:13;;;;;;;5.43;4.93;;;26.10;45.10;;;;;;4644733;56;21081;-27
2022/07/14 03:03:13;;;;;;;5.68;4.95;;;26.20;45.10;;;;;;4642370;56;21483;-25
2022/07/14 03:08:14;;;;;;;5.37;4.87;;;26.10;45.20;;;;;;4748027;56;21061;-31
2022/07/14 03:13:15;;;;;;;6.25;5.05;;;26.10;45.00;;;;;;4615355;60;21064;-32
2022/07/14 03:18:16;;;;;;;5.40;4.87;;;26.10;45.00;;;;;;4715282;56;21022;-31
2022/07/14 03:23:17;;;;;;;7.10;4.95;;;26.10;45.00;;;;;;4652463;56;21045;-27
2022/07/14 03:28:18;;;;;;;5.90;5.15;;;26.10;45.10;;;;;;4696266;56;21522;-26
2022/07/14 03:33:19;;;;;;;5.28;4.78;;;26.10;45.00;;;;;;4836036;56;21083;-27
2022/07/14 03:38:20;;;;;;;5.00;4.53;;;26.10;45.00;;;;;;4791867;56;21027;-27
2022/07/14 03:43:20;;;;;;;4.70;4.20;;;26.10;45.00;;;;;;4814964;56;21494;-27
2022/07/14 03:48:21;;;;;;;6.12;4.90;;;26.10;45.10;;;;;;4859454;56;21040;-28
2022/07/14 03:53:22;;;;;;;6.05;4.78;;;26.10;45.00;;;;;;4615405;60;21471;-28
2022/07/14 03:58:24;;;;;;;4.80;4.22;;;26.10;45.10;;;;;;4642707;56;21069;-28
2022/07/14 04:03:25;;;;;;;5.28;4.45;;;26.10;45.10;;;;;;4615606;60;21641;-26
2022/07/14 04:08:26;;;;;;;4.93;4.47;;;26.10;45.20;;;;;;4647054;56;21542;-26
2022/07/14 04:13:29;;;;;;;5.93;4.65;;;26.10;45.20;;;;;;4615369;60;21020;-27
2022/07/14 04:18:30;;;;;;;4.90;4.40;;;26.10;45.10;;;;;;4615578;60;21495;-25
2022/07/14 04:23:30;;;;;;;5.68;4.45;;;26.10;45.60;;;;;;4771260;56;21036;-29
2022/07/14 04:28:31;;;;;;;7.18;4.35;;;26.10;45.10;;;;;;4615004;60;21096;-30
2022/07/14 04:33:33;;;;;;;5.07;4.57;;;26.10;45.00;;;;;;4671540;56;21024;-31
2022/07/14 04:38:33;;;;;;;5.15;4.22;;;26.10;45.00;;;;;;4746820;56;21535;-32
2022/07/14 04:43:34;;;;;;;6.12;4.22;;;26.00;45.00;;;;;;4656175;56;21092;-34
2022/07/14 04:52:01;;;;;;;6.40;4.22;;;26.10;45.10;;;;;;4615113;57;21032;-35
2022/07/14 04:57:04;;;;;;;5.35;4.30;;;26.10;45.00;;;;;;4857853;56;21503;-28
2022/07/14 05:02:05;;;;;;;5.60;4.00;;;26.00;44.90;;;;;;4712651;56;21017;-26
2022/07/14 05:07:06;;;;;;;4.78;4.28;;;26.00;45.00;;;;;;4685256;56;21029;-29
2022/07/14 05:12:09;;;;;;;4.80;4.10;;;26.00;45.00;;;;;;4614857;56;21492;-25
2022/07/14 05:17:11;;;;;;;4.80;4.12;;;26.00;45.00;;;;;;4615172;60;21490;-28
2022/07/14 05:22:12;;;;;;;5.28;4.05;;;26.00;45.10;;;;;;4615161;60;21474;-30
2022/07/14 05:27:13;;;;;;;4.70;4.20;;;26.10;45.00;;;;;;4621851;56;21092;-28
2022/07/14 05:32:14;;;;;;;5.15;4.05;;;26.10;45.10;;;;;;4640522;56;21076;-26
2022/07/14 05:37:15;;;;;;;5.55;4.40;;;26.10;45.70;;;;;;4728339;56;21019;-26
2022/07/14 05:42:18;;;;;;;6.28;4.60;;;26.10;45.00;;;;;;4615440;60;21088;-26
2022/07/14 05:47:19;;;;;;;5.28;4.37;;;26.00;45.10;;;;;;4801608;56;21590;-26
2022/07/14 05:52:20;;;;;;;5.97;4.60;;;26.00;45.10;;;;;;4715853;56;21017;-25
2022/07/14 05:57:21;;;;;;;6.55;4.75;;;26.00;45.00;;;;;;4707372;56;21053;-25
2022/07/14 06:02:21;;;;;;;7.95;4.78;;;26.00;45.10;;;;;;4664615;56;21044;-27
2022/07/14 06:07:22;;;;;;;7.20;4.82;;;26.00;45.10;;;;;;4615051;60;21121;-26
2022/07/14 06:12:23;;;;;;;15.18;8.75;;;26.10;45.10;;;;;;4657639;56;21005;-27
2022/07/14 06:17:24;;;;;;;12.80;7.20;;;25.90;44.50;;;;;;4618066;56;21032;-25
2022/07/14 06:22:25;;;;;;;12.88;7.32;;;26.00;44.80;;;;;;4615125;60;21073;-28
2022/07/14 06:27:26;;;;;;;14.52;7.60;;;26.00;44.80;;;;;;4614983;60;21032;-26
2022/07/14 06:32:26;;;;;;;14.20;7.85;;;26.00;44.70;;;;;;4635242;56;21550;-27
2022/07/14 06:37:27;;;;;;;12.65;7.50;;;26.10;44.60;;;;;;4732081;56;21024;-26
2022/07/14 06:42:29;;;;;;;11.88;7.25;;;26.10;44.60;;;;;;4812327;56;21059;-27
2022/07/14 06:47:30;;;;;;;11.52;7.50;;;26.10;44.50;;;;;;4615498;60;21597;-26
2022/07/14 06:52:31;;;;;;;19.45;12.07;;;26.10;44.50;;;;;;4621920;56;21559;-25
2022/07/14 06:57:32;;;;;;;24.83;18.62;;;26.10;44.50;;;;;;4623787;56;21487;-26
2022/07/14 07:02:35;;;;;;;26.45;17.48;;;26.00;44.50;;;;;;4717187;56;21076;-28
2022/07/14 07:07:36;;;;;;;31.42;18.92;;;25.90;44.70;;;;;;4798752;56;21507;-28
2022/07/14 07:12:37;;;;;;;24.00;16.05;;;25.90;44.60;;;;;;4903467;56;21090;-25
2022/07/14 07:17:38;;;;;;;23.92;16.58;;;25.90;44.70;;;;;;4986627;56;21152;-25
2022/07/14 07:22:39;;;;;;;25.15;16.48;;;25.90;44.70;;;;;;4741773;56;21048;-26
2022/07/14 07:27:40;;;;;;;20.00;16.00;;;25.90;44.70;;;;;;4615070;60;21506;-26
2022/07/14 07:32:40;;;;;;;27.37;17.42;;;25.90;44.80;;;;;;4631498;56;21092;-26
2022/07/14 07:37:41;;;;;;;26.52;19.83;;;25.90;44.80;;;;;;4935700;56;21040;-33
2022/07/14 07:42:42;;;;;;;39.85;33.10;;;25.90;44.70;;;;;;4964463;56;21578;-28
2022/07/14 07:47:43;;;;;;;39.92;28.08;;;25.90;44.70;;;;;;4749091;56;21088;-25
2022/07/14 07:52:44;;;;;;;63.87;42.15;;;26.00;44.90;;;;;;4724461;56;21040;-25
2022/07/14 07:57:45;;;;;;;66.70;42.78;;;26.00;44.50;;;;;;4700407;56;21534;-24
2022/07/14 08:02:52;;;;;;;58.22;40.40;;;26.00;44.80;;;;;;4614983;60;21511;-27
2022/07/14 08:07:53;;;;;;;62.85;40.15;;;26.10;45.10;;;;;;4871054;56;21522;-25
2022/07/14 08:12:54;;;;;;;56.30;37.78;;;26.10;44.90;;;;;;4701881;56;21012;-26
2022/07/14 08:17:55;;;;;;;54.28;36.10;;;26.20;45.00;;;;;;4615135;60;21032;-25
2022/07/14 08:22:57;;;;;;;48.85;34.53;;;26.20;45.50;;;;;;4737228;56;21068;-26
2022/07/14 08:27:58;;;;;;;50.53;34.58;;;26.20;44.90;;;;;;4615085;60;21096;-26
2022/07/14 08:32:58;;;;;;;50.75;35.17;;;26.20;44.50;;;;;;4955393;56;21024;-29
2022/07/14 08:37:59;;;;;;;44.03;34.08;;;26.20;43.70;;;;;;4615212;60;21036;-25
2022/07/14 08:43:01;;;;;;;48.15;36.22;;;26.20;44.20;;;;;;4642984;56;21052;-28
2022/07/14 08:48:02;;;;;;;50.55;37.05;;;26.20;44.20;;;;;;4614758;60;21486;-26
2022/07/14 08:53:08;;;;;;;54.50;38.75;;;26.30;44.20;;;;;;4635881;56;21170;-28
2022/07/14 08:58:09;;;;;;;55.63;37.85;;;26.30;44.30;;;;;;4615152;60;21514;-26
2022/07/14 09:03:10;;;;;;;53.22;38.30;;;26.30;44.40;;;;;;4614600;60;21582;-24
2022/07/14 09:08:13;;;;;;;52.58;39.15;;;26.30;44.50;;;;;;4690378;56;21025;-27
2022/07/14 09:13:20;;;;;;;51.83;37.17;;;26.40;44.50;;;;;;4672209;56;21084;-26
2022/07/14 09:18:26;;;;;;;47.95;33.85;;;26.40;44.50;;;;;;4829508;56;21386;-28
2022/07/14 09:23:35;;;;;;;50.43;35.83;;;26.40;44.40;;;;;;4676526;56;21032;-27
2022/07/14 09:28:40;;;;;;;43.90;32.78;;;26.40;44.30;;;;;;4638435;56;21502;-30
2022/07/14 09:33:42;;;;;;;43.13;30.95;;;26.40;44.30;;;;;;4614489;56;21040;-27
2022/07/14 09:38:45;;;;;;;41.50;29.75;;;26.50;44.40;;;;;;4654522;56;21586;-27
2022/07/14 09:44:10;;;;;;;42.03;30.00;;;26.50;44.40;;;;;;4621218;56;21166;-27
2022/07/14 09:49:11;;;;;;;38.75;30.02;;;26.50;44.30;;;;;;4652458;56;21027;-29
2022/07/14 09:54:12;;;;;;;40.45;28.55;;;26.60;44.50;;;;;;4674507;56;21575;-25
2022/07/14 09:59:12;;;;;;;35.75;27.83;;;26.60;44.40;;;;;;4800251;56;21026;-29
2022/07/14 10:04:13;;;;;;;40.80;30.67;;;26.60;43.90;;;;;;4692049;56;21080;-25
2022/07/14 10:09:15;;;;;;;37.70;28.83;;;26.60;44.00;;;;;;4627271;56;21214;-23
2022/07/14 10:14:16;;;;;;;41.55;29.70;;;26.70;44.30;;;;;;4642507;56;21490;-28
2022/07/14 10:19:19;;;;;;;36.47;28.83;;;26.70;44.20;;;;;;4613690;60;21065;-32
2022/07/14 10:24:21;;;;;;;32.47;26.60;;;26.70;44.20;;;;;;4661307;56;21578;-29
2022/07/14 10:29:22;;;;;;;36.38;27.17;;;26.70;44.20;;;;;;4614040;56;21522;-25
2022/07/14 10:34:37;;;;;;;32.42;25.35;;;26.60;44.30;;;;;;4614204;60;21100;-31
2022/07/14 10:40:03;;;;;;;29.37;23.02;;;26.70;44.50;;;;;;4618513;56;21072;-29
2022/07/14 10:45:05;;;;;;;28.98;23.77;;;26.70;42.60;;;;;;4639495;56;21570;-29
2022/07/14 10:50:13;;;;;;;32.22;24.87;;;26.70;42.70;;;;;;4695843;56;21044;-27
2022/07/14 10:55:55;;;;;;;36.92;26.20;;;26.80;42.20;;;;;;4643498;56;21144;-29
2022/07/14 11:00:58;;;;;;;32.63;26.55;;;26.80;42.00;;;;;;4683813;56;21091;-25
2022/07/14 11:06:18;;;;;;;33.05;25.60;;;26.70;42.20;;;;;;4637881;56;21530;-29
2022/07/14 11:11:21;;;;;;;29.92;23.40;;;26.70;42.30;;;;;;4613448;60;21567;-29
2022/07/14 11:16:55;;;;;;;30.98;24.35;;;26.70;42.40;;;;;;4714509;56;21514;-29
2022/07/14 11:22:21;;;;;;;28.62;22.85;;;26.70;42.50;;;;;;4805055;56;21578;-29
2022/07/14 11:27:59;;;;;;;29.12;22.80;;;26.70;42.60;;;;;;4614256;60;21035;-27
2022/07/14 11:33:13;;;;;;;29.90;22.48;;;26.70;42.50;;;;;;4728472;56;21101;-30
2022/07/14 11:38:26;;;;;;;21.12;16.12;;;26.70;42.50;;;;;;4620447;56;21534;-30
2022/07/14 11:43:37;;;;;;;29.10;19.92;;;26.80;40.80;;;;;;4614320;60;21008;-30
2022/07/14 11:48:41;;;;;;;27.13;19.92;;;26.80;40.70;;;;;;4775657;56;21044;-30
2022/07/14 11:53:42;;;;;;;25.52;20.27;;;26.80;41.00;;;;;;4645076;56;21040;-28
2022/07/14 11:58:43;;;;;;;24.37;19.98;;;26.80;41.30;;;;;;4614874;56;21522;-28
2022/07/14 12:03:45;;;;;;;23.92;19.83;;;26.80;41.70;;;;;;4680130;56;20997;-30
2022/07/14 12:08:47;;;;;;;24.05;18.55;;;26.70;41.90;;;;;;4615091;60;21032;-31
2022/07/14 12:13:51;;;;;;;25.37;19.23;;;26.70;42.10;;;;;;4754803;56;21147;-29
2022/07/14 12:18:53;;;;;;;25.02;19.58;;;26.70;42.20;;;;;;4788865;56;21570;-29
2022/07/14 12:23:56;;;;;;;23.95;18.15;;;26.60;42.30;;;;;;4614574;60;21099;-29
2022/07/14 12:29:01;;;;;;;21.50;18.35;;;26.60;42.40;;;;;;4682429;56;21096;-28
2022/07/14 12:34:03;;;;;;;18.97;16.97;;;26.60;42.50;;;;;;4720017;56;21024;-30
2022/07/14 12:39:05;;;;;;;23.90;18.37;;;26.60;42.60;;;;;;4889993;56;21029;-29
2022/07/14 12:44:10;;;;;;;22.92;17.77;;;26.60;42.70;;;;;;5050668;56;20997;-30
2022/07/14 12:49:11;;;;;;;22.05;17.83;;;26.50;42.70;;;;;;4626118;56;21080;-28
2022/07/14 12:54:18;;;;;;;19.60;16.80;;;26.50;42.80;;;;;;4748521;56;21032;-30
2022/07/14 12:59:30;;;;;;;;;;;26.50;43.00;;;;;;4652550;56;21506;-30
2022/07/14 13:04:46;;;;;;;21.90;16.92;;;26.50;43.00;;;;;;4882843;56;20368;-29
2022/07/14 13:16:36;;;;;;;20.62;17.30;;;26.50;43.20;;;;;;4773905;56;21602;-29
2022/07/14 13:22:06;;;;;;;20.48;16.60;;;26.50;43.20;;;;;;4667561;56;21024;-34
2022/07/14 13:27:16;;;;;;;20.90;17.42;;;26.50;43.30;;;;;;4837719;56;21065;-30
2022/07/14 13:32:18;;;;;;;20.02;16.23;;;26.50;43.40;;;;;;4743074;56;21009;-29
2022/07/14 13:37:19;;;;;;;20.33;17.17;;;26.50;43.40;;;;;;4615093;60;21486;-31
2022/07/14 13:42:19;;;;;;;19.73;16.67;;;26.50;44.20;;;;;;4834982;56;21016;-38
2022/07/14 13:47:20;;;;;;;21.20;17.12;;;26.50;43.60;;;;;;4694733;56;21478;-29
2022/07/14 13:52:21;;;;;;;20.08;16.25;;;26.50;43.60;;;;;;4815765;56;21035;-30
2022/07/14 13:57:22;;;;;;;20.15;16.98;;;26.50;43.60;;;;;;4615153;60;21068;-30
2022/07/14 14:02:23;;;;;;;17.77;15.43;;;26.50;43.70;;;;;;4769063;56;21008;-27
2022/07/14 14:07:24;;;;;;;18.37;16.33;;;26.50;43.70;;;;;;4672536;56;21001;-33
2022/07/14 14:12:24;;;;;;;19.48;16.00;;;26.50;43.70;;;;;;4715821;56;21021;-30
2022/07/14 14:17:25;;;;;;;19.25;16.23;;;26.50;43.80;;;;;;4719472;56;21475;-30
2022/07/14 14:22:26;;;;;;;19.25;16.10;;;26.50;43.80;;;;;;4668007;56;21487;-30
2022/07/14 14:27:27;;;;;;;18.40;16.05;;;26.50;43.80;;;;;;4667350;56;21079;-30
2022/07/14 14:32:27;;;;;;;18.02;16.00;;;26.50;43.80;;;;;;4695731;56;21060;-29
2022/07/14 14:37:28;;;;;;;17.80;15.85;;;26.50;43.80;;;;;;4672432;56;21012;-29
2022/07/14 14:42:29;;;;;;;16.95;15.20;;;26.50;43.80;;;;;;4788891;56;21016;-30
2022/07/14 14:47:30;;;;;;;17.37;15.48;;;26.50;43.80;;;;;;4744743;56;21028;-28
2022/07/14 14:52:31;;;;;;;18.83;16.15;;;26.50;43.80;;;;;;4741552;56;21036;-31
2022/07/14 14:57:32;;;;;;;17.77;15.98;;;26.50;43.80;;;;;;4858439;56;21047;-29
2022/07/14 15:02:35;;;;;;;17.87;15.00;;;26.50;43.80;;;;;;4688719;56;21001;-29
2022/07/14 15:07:36;;;;;;;17.80;15.50;;;26.50;44.50;;;;;;4647504;56;21107;-28
2022/07/14 15:12:38;;;;;;;18.83;16.05;;;26.50;43.90;;;;;;4676751;56;21080;-29
2022/07/14 15:17:39;;;;;;;17.15;15.32;;;26.50;43.90;;;;;;4756085;56;21027;-30
2022/07/14 15:22:39;;;;;;;16.70;14.77;;;26.50;43.90;;;;;;4615031;60;21141;-30
2022/07/14 15:27:40;;;;;;;17.12;15.20;;;26.50;43.90;;;;;;4716545;56;21105;-35
2022/07/14 15:32:41;;;;;;;17.02;15.15;;;26.50;44.00;;;;;;4706364;56;21060;-34
2022/07/14 15:37:42;;;;;;;17.23;15.40;;;26.50;44.00;;;;;;4627916;56;21116;-31
2022/07/14 15:42:43;;;;;;;17.23;15.43;;;26.50;44.10;;;;;;4791511;56;21491;-28
2022/07/14 15:47:43;;;;;;;16.62;14.70;;;26.50;44.10;;;;;;4641288;56;21027;-30
2022/07/14 15:52:44;;;;;;;16.92;15.13;;;26.50;44.00;;;;;;4620365;56;21067;-28
2022/07/14 15:57:45;;;;;;;17.27;15.45;;;26.50;44.00;;;;;;4839514;56;21482;-31
2022/07/14 16:02:46;;;;;;;18.17;15.80;;;26.50;44.10;;;;;;4653153;56;21020;-28
2022/07/14 16:07:47;;;;;;;17.10;15.30;;;26.50;44.00;;;;;;4614806;60;21016;-30
2022/07/14 16:12:47;;;;;;;16.95;15.15;;;26.60;44.20;;;;;;4635191;56;21032;-30
2022/07/14 16:17:48;;;;;;;16.17;14.48;;;26.50;44.10;;;;;;4731593;56;21029;-28
2022/07/14 16:22:50;;;;;;;17.20;14.75;;;26.50;44.20;;;;;;4614918;60;21522;-32
2022/07/14 16:27:52;;;;;;;15.82;14.13;;;26.60;44.20;;;;;;4682556;56;21482;-31
2022/07/14 16:32:53;;;;;;;16.27;14.57;;;26.60;44.20;;;;;;4615140;60;21646;-30
2022/07/14 16:37:53;;;;;;;16.35;14.65;;;26.60;44.20;;;;;;4923050;56;21044;-30
2022/07/14 16:42:54;;;;;;;16.95;15.05;;;26.60;44.20;;;;;;4728550;56;21008;-31
2022/07/14 16:47:56;;;;;;;16.52;14.25;;;26.50;44.20;;;;;;4653780;56;21095;-30
2022/07/14 16:52:57;;;;;;;16.42;14.73;;;26.60;44.20;;;;;;4788974;56;21100;-30
2022/07/14 16:57:58;;;;;;;16.85;14.55;;;26.50;44.20;;;;;;4621880;56;21088;-29
2022/07/14 17:02:59;;;;;;;16.33;14.57;;;26.60;44.90;;;;;;4701107;56;21598;-31
2022/07/14 17:08:00;;;;;;;15.98;14.27;;;26.60;44.30;;;;;;4615021;60;21044;-34
2022/07/14 17:13:00;;;;;;;15.60;14.00;;;26.60;44.30;;;;;;4630361;56;21072;-30
2022/07/14 17:18:01;;;;;;;15.75;14.02;;;26.60;44.30;;;;;;4873681;56;21594;-31
2022/07/14 17:23:02;;;;;;;16.62;14.87;;;26.60;45.00;;;;;;4658397;56;21086;-30
2022/07/14 17:28:04;;;;;;;15.68;14.05;;;26.60;44.30;;;;;;4614710;60;21072;-28
2022/07/14 17:33:04;;;;;;;15.15;13.55;;;26.60;44.40;;;;;;4850737;56;21005;-31
2022/07/14 17:38:05;;;;;;;15.82;14.13;;;26.60;44.40;;;;;;4673153;56;21032;-33
2022/07/14 17:43:06;;;;;;;16.10;14.40;;;26.60;44.40;;;;;;4713853;56;21016;-33
2022/07/14 17:48:07;;;;;;;15.75;13.90;;;26.60;44.40;;;;;;4674274;56;21900;-29
2022/07/14 17:53:08;;;;;;;15.52;13.98;;;26.60;44.40;;;;;;4769246;56;21028;-29
2022/07/14 17:58:11;;;;;;;15.65;13.90;;;26.60;44.40;;;;;;4614967;60;21123;-31
2022/07/14 18:03:11;;;;;;;14.70;13.20;;;26.60;44.40;;;;;;4672524;56;21578;-30
2022/07/14 18:08:12;;;;;;;15.70;14.02;;;26.60;44.50;;;;;;4640827;56;21041;-31
2022/07/14 18:13:13;;;;;;;15.40;13.77;;;26.60;44.50;;;;;;4778173;56;21020;-35
2022/07/14 18:18:14;;;;;;;15.70;13.77;;;26.60;44.50;;;;;;4645639;56;21539;-29
2022/07/14 18:23:15;;;;;;;15.00;13.40;;;26.60;44.50;;;;;;4757798;56;21052;-32
2022/07/14 18:28:16;;;;;;;15.25;13.40;;;26.60;44.50;;;;;;4615035;56;21020;-29
2022/07/14 18:33:17;;;;;;;15.32;13.82;;;26.60;44.60;;;;;;4880774;56;21506;-30
2022/07/14 18:38:18;;;;;;;15.48;13.38;;;26.60;44.60;;;;;;4635475;56;21088;-28
2022/07/14 18:43:18;;;;;;;14.40;12.98;;;26.60;44.60;;;;;;4806568;56;21028;-30
2022/07/14 18:48:19;;;;;;;15.05;13.45;;;26.60;44.70;;;;;;4784848;56;21658;-30
2022/07/14 18:53:21;;;;;;;14.50;13.00;;;26.60;44.70;;;;;;4657561;56;21012;-32
2022/07/14 18:58:22;;;;;;;14.48;12.90;;;26.60;44.70;;;;;;4751282;56;21519;-30
2022/07/14 19:03:23;;;;;;;14.52;13.05;;;26.60;44.80;;;;;;4672836;56;21190;-30
2022/07/14 19:08:24;;;;;;;14.48;12.98;;;26.60;44.90;;;;;;4626274;56;21088;-36
2022/07/14 19:13:25;;;;;;;13.98;12.50;;;26.60;44.80;;;;;;4654613;56;21037;-33
2022/07/14 19:18:27;;;;;;;13.68;12.30;;;26.60;44.90;;;;;;4686899;56;21012;-31
2022/07/14 19:23:29;;;;;;;14.52;12.90;;;26.60;44.90;;;;;;4823833;56;21036;-29
2022/07/14 19:28:29;;;;;;;15.43;13.05;;;26.60;44.90;;;;;;4773276;56;21468;-27
2022/07/14 19:33:30;;;;;;;14.52;13.02;;;26.60;45.00;;;;;;4936486;56;21011;-25
2022/07/14 19:38:31;;;;;;;14.32;12.93;;;26.60;45.00;;;;;;5017075;56;21594;-29
2022/07/14 19:43:34;;;;;;;14.55;12.93;;;26.60;45.00;;;;;;4766025;56;21013;-30
2022/07/14 19:48:35;;;;;;;14.20;12.73;;;26.60;45.00;;;;;;4752779;56;21510;-30
2022/07/14 19:53:36;;;;;;;14.80;13.23;;;26.60;45.10;;;;;;4679430;56;21040;-32
2022/07/14 19:58:37;;;;;;;14.10;12.60;;;26.60;45.10;;;;;;4647856;56;21024;-33
2022/07/14 20:03:38;;;;;;;14.60;13.10;;;26.60;45.20;;;;;;4864000;56;21028;-31
2022/07/14 20:08:38;;;;;;;13.93;12.50;;;26.60;45.20;;;;;;4671514;56;21499;-32
2022/07/14 20:13:39;;;;;;;14.52;13.02;;;26.60;45.20;;;;;;4662116;56;21068;-30
2022/07/14 20:18:41;;;;;;;14.65;12.95;;;26.60;45.20;;;;;;4614201;60;21565;-28
2022/07/14 20:23:42;;;;;;;13.20;11.90;;;26.60;45.30;;;;;;4704550;56;21064;-29
2022/07/14 20:34:04;;;;;;;14.15;12.55;;;26.60;45.40;;;;;;4752747;56;21607;-29
2022/07/14 20:39:05;;;;;;;13.62;12.30;;;26.60;45.40;;;;;;4685747;56;21076;-30
2022/07/14 20:44:05;;;;;;;14.52;13.05;;;26.60;45.50;;;;;;4615390;60;21072;-30
2022/07/14 20:49:06;;;;;;;13.07;11.68;;;26.60;45.50;;;;;;4728469;56;21040;-32
2022/07/14 20:54:07;;;;;;;13.65;12.05;;;26.60;45.50;;;;;;4698706;56;21460;-30
2022/07/14 20:59:08;;;;;;;14.48;12.70;;;26.60;45.60;;;;;;4820571;56;21009;-30
2022/07/14 21:04:09;;;;;;;13.32;12.00;;;26.60;45.60;;;;;;4651699;56;20996;-29
2022/07/14 21:09:09;;;;;;;13.77;11.85;;;26.60;45.60;;;;;;4845458;56;21513;-30
2022/07/14 21:14:11;;;;;;;12.35;11.05;;;26.60;45.70;;;;;;4813456;56;21092;-31
2022/07/14 21:19:12;;;;;;;12.90;11.43;;;26.60;45.70;;;;;;4685014;56;21523;-33
2022/07/14 21:24:13;;;;;;;12.48;11.15;;;26.60;45.80;;;;;;4614756;60;21037;-33
2022/07/14 21:29:13;;;;;;;12.73;11.43;;;26.60;45.80;;;;;;4614789;56;21064;-32
2022/07/14 21:34:15;;;;;;;12.70;11.40;;;26.60;45.80;;;;;;4615172;56;21519;-35
2022/07/14 21:39:15;;;;;;;12.37;11.18;;;26.60;45.90;;;;;;4668823;56;21497;-34
2022/07/14 21:44:16;;;;;;;12.73;11.43;;;26.60;46.00;;;;;;4712962;56;21009;-33
2022/07/14 21:49:17;;;;;;;12.10;10.60;;;26.60;46.00;;;;;;4615463;56;21128;-32
2022/07/14 21:54:18;;;;;;;12.25;10.95;;;26.60;46.10;;;;;;4707026;56;21016;-29
2022/07/14 21:59:18;;;;;;;12.30;11.00;;;26.60;46.10;;;;;;4662978;56;21571;-29
2022/07/14 22:04:19;;;;;;;11.88;10.55;;;26.60;46.20;;;;;;4693339;56;21021;-28
2022/07/14 22:09:20;;;;;;;11.82;10.63;;;26.60;46.20;;;;;;4676647;56;21044;-28
2022/07/14 22:14:21;;;;;;;11.57;10.38;;;26.60;46.30;;;;;;4654708;56;21016;-29
2022/07/14 22:19:22;;;;;;;11.20;10.00;;;26.60;46.30;;;;;;4964864;56;21558;-29
2022/07/14 22:24:23;;;;;;;11.60;10.40;;;26.60;46.40;;;;;;4764419;56;21092;-31
2022/07/14 22:29:23;;;;;;;11.00;9.90;;;26.60;46.90;;;;;;4707239;56;21017;-30
2022/07/14 22:34:24;;;;;;;12.70;10.25;;;26.60;46.40;;;;;;4685594;56;21009;-30
2022/07/14 22:39:25;;;;;;;11.38;10.00;;;26.60;46.50;;;;;;4615450;60;21009;-32
2022/07/14 22:44:26;;;;;;;10.93;9.82;;;26.60;46.60;;;;;;4615472;60;21060;-30
2022/07/14 22:49:27;;;;;;;10.55;9.45;;;26.60;46.60;;;;;;4676263;56;21020;-31
2022/07/14 22:54:29;;;;;;;9.70;8.77;;;26.50;46.50;;;;;;4772123;56;21020;-30
2022/07/14 22:59:31;;;;;;;10.45;9.35;;;26.60;46.70;;;;;;4615757;60;21515;-31
2022/07/14 23:04:31;;;;;;;12.15;9.50;;;26.60;46.70;;;;;;4934904;56;21029;-31
2022/07/14 23:09:32;;;;;;;10.35;9.35;;;26.60;46.70;;;;;;4615442;60;21028;-31
2022/07/14 23:14:33;;;;;;;10.20;9.20;;;26.60;46.70;;;;;;4617865;56;21012;-34
2022/07/14 23:19:34;;;;;;;10.98;9.82;;;26.50;46.70;;;;;;4687225;56;21013;-32
2022/07/14 23:24:35;;;;;;;10.50;9.50;;;26.60;46.90;;;;;;4715675;56;21096;-29
2022/07/14 23:29:35;;;;;;;10.15;9.15;;;26.50;46.80;;;;;;4648104;56;21035;-30
2022/07/14 23:34:36;;;;;;;9.77;8.63;;;26.60;47.00;;;;;;4648680;56;21068;-29
2022/07/14 23:39:38;;;;;;;9.48;8.57;;;26.60;47.00;;;;;;4687741;56;21057;-30
2022/07/14 23:44:39;;;;;;;9.80;8.82;;;26.50;46.90;;;;;;4840719;56;21534;-30
2022/07/14 23:49:40;;;;;;;9.55;8.55;;;26.60;47.10;;;;;;4738129;56;21080;-30
2022/07/14 23:54:42;;;;;;;9.80;8.77;;;26.60;47.10;;;;;;4615474;57;21052;-29
2022/07/14 23:59:43;;;;;;;9.50;8.50;;;26.50;47.80;;;;;;4615395;60;21546;-29
